Time;durP1;ratioP1;P1;durP2;ratioP2;P2;SDS_P1;SDS_P2;PMS_P1;PMS_P2;Temp;Humidity;BMP_temperature;BMP_pressure;BME280_temperature;BME280_humidity;BME280_pressure;Samples;Min_cycle;Max_cycle;Signal;HPM_P1;HPM_P2
2020/12/14 00:00:17;;;;;;;23.47;14.15;;;;;;;6.33;75.32;96803.61;1809203;79;21135;-80
2020/12/14 00:02:46;;;;;;;24.40;15.60;;;;;;;6.28;75.35;96803.55;1783773;79;21122;-85
2020/12/14 00:05:14;;;;;;;24.15;15.25;;;;;;;6.23;75.47;96809.09;1801428;79;21128;-86
2020/12/14 00:07:42;;;;;;;24.43;15.40;;;;;;;6.20;75.54;96809.32;1797135;79;21144;-83
2020/12/14 00:10:09;;;;;;;25.72;14.80;;;;;;;6.15;75.61;96814.86;1802198;78;21095;-84
2020/12/14 00:12:37;;;;;;;24.85;15.25;;;;;;;6.11;75.64;96818.61;1786864;80;21140;-83
2020/12/14 00:15:05;;;;;;;19.98;12.60;;;;;;;6.10;75.75;96815.63;1805086;79;21131;-90
2020/12/14 00:17:33;;;;;;;20.02;12.98;;;;;;;6.11;75.90;96817.30;1790826;78;21137;-89
2020/12/14 00:20:04;;;;;;;21.65;12.78;;;;;;;6.11;76.02;96829.08;1786384;79;21687;-90
2020/12/14 00:22:33;;;;;;;26.42;14.28;;;;;;;6.14;76.16;96828.03;1786109;80;21108;-89
2020/12/14 00:25:02;;;;;;;20.65;13.30;;;;;;;6.17;76.26;96827.84;1788480;79;21100;-82
2020/12/14 00:27:30;;;;;;;22.00;13.78;;;;;;;6.18;76.26;96832.13;1801201;79;21147;-88
2020/12/14 00:29:57;;;;;;;24.82;14.03;;;;;;;6.23;76.41;96832.65;1797395;79;21156;-88
2020/12/14 00:32:25;;;;;;;20.85;13.18;;;;;;;6.30;76.47;96827.84;1792036;78;21149;-90
2020/12/14 00:34:53;;;;;;;21.77;12.70;;;;;;;6.38;76.43;96834.71;1787211;80;21142;-88
2020/12/14 00:37:21;;;;;;;23.47;15.13;;;;;;;6.47;76.41;96837.19;1813335;79;21124;-87
2020/12/14 00:39:49;;;;;;;20.45;13.10;;;;;;;6.50;76.39;96836.51;1810473;79;21560;-88
2020/12/14 00:42:16;;;;;;;19.52;12.30;;;;;;;6.62;76.19;96849.72;1801640;77;21373;-84
2020/12/14 00:44:44;;;;;;;19.30;10.80;;;;;;;6.65;75.95;96854.72;1796822;79;21154;-89
2020/12/14 00:47:11;;;;;;;19.17;12.53;;;;;;;6.64;75.96;96855.21;1799111;79;21103;-89
2020/12/14 00:49:39;;;;;;;22.52;13.08;;;;;;;6.67;75.93;96855.02;1773431;80;21137;-82
2020/12/14 00:52:07;;;;;;;19.95;12.73;;;;;;;6.68;75.90;96849.28;1781719;80;21201;-89
2020/12/14 00:54:34;;;;;;;19.87;12.97;;;;;;;6.69;75.70;96853.59;1794718;80;21126;-89
2020/12/14 00:57:03;;;;;;;21.87;13.88;;;;;;;6.66;75.42;96848.09;1779066;80;21154;-90
2020/12/14 00:59:30;;;;;;;21.48;13.30;;;;;;;6.64;75.29;96853.91;1777453;81;21520;-89
2020/12/14 01:01:58;;;;;;;21.55;13.55;;;;;;;6.60;75.17;96858.14;1789785;80;21089;-91
2020/12/14 01:04:25;;;;;;;23.52;14.98;;;;;;;6.54;75.22;96859.39;1765828;81;21147;-87
2020/12/14 01:06:53;;;;;;;19.90;12.70;;;;;;;6.48;75.23;96856.72;1781267;80;21107;-88
2020/12/14 01:09:22;;;;;;;20.50;12.98;;;;;;;6.47;75.20;96858.96;1785438;80;21110;-85
2020/12/14 01:11:49;;;;;;;23.02;14.47;;;;;;;6.43;75.15;96860.13;1792835;80;21119;-84
2020/12/14 01:14:17;;;;;;;21.02;12.28;;;;;;;6.43;75.24;96864.06;1795114;80;21578;-84
2020/12/14 01:16:47;;;;;;;21.23;13.58;;;;;;;6.35;75.12;96859.81;1778259;80;21172;-85
2020/12/14 01:19:15;;;;;;;19.40;13.38;;;;;;;6.30;75.15;96864.05;1772123;80;21134;-87
2020/12/14 01:21:42;;;;;;;19.73;12.88;;;;;;;6.28;75.31;96864.61;1775997;80;21143;-91
2020/12/14 01:24:09;;;;;;;21.12;13.72;;;;;;;6.22;75.22;96864.55;1757716;81;21115;-88
2020/12/14 01:26:37;;;;;;;20.97;13.22;;;;;;;6.18;75.32;96863.05;1772763;80;21132;-86
2020/12/14 01:29:04;;;;;;;22.67;14.28;;;;;;;6.15;75.34;96859.80;1771691;80;21131;-87
2020/12/14 01:31:31;;;;;;;22.55;13.58;;;;;;;6.11;75.43;96864.41;1789234;80;21512;-89
2020/12/14 01:33:59;;;;;;;20.17;13.32;;;;;;;6.06;75.46;96864.71;1777367;81;21119;-90
2020/12/14 01:36:27;;;;;;;21.90;13.28;;;;;;;6.04;75.49;96870.51;1777618;81;21130;-87
2020/12/14 01:38:54;;;;;;;21.77;13.18;;;;;;;6.00;75.56;96873.42;1777610;80;21140;-88
2020/12/14 01:41:22;;;;;;;22.10;13.38;;;;;;;5.97;75.57;96876.23;1788481;80;21568;-87
2020/12/14 01:43:49;;;;;;;19.65;12.43;;;;;;;5.96;75.61;96871.94;1734217;83;21576;-88
2020/12/14 01:46:22;;;;;;;21.62;13.48;;;;;;;5.92;75.62;96873.43;1735940;80;21151;-79
2020/12/14 01:48:49;;;;;;;21.68;13.30;;;;;;;5.87;75.61;96871.59;1734160;81;21615;-88
2020/12/14 01:51:16;;;;;;;19.60;11.95;;;;;;;5.82;75.78;96874.96;1765089;81;21099;-89
2020/12/14 01:53:44;;;;;;;22.32;13.55;;;;;;;5.81;75.91;96881.61;1765923;81;21531;-88
2020/12/14 01:56:12;;;;;;;21.17;12.18;;;;;;;5.81;76.07;96883.74;1765960;81;21153;-89
2020/12/14 01:58:39;;;;;;;22.82;12.58;;;;;;;5.82;76.16;96883.30;1765915;81;21147;-88
2020/12/14 02:01:07;;;;;;;21.05;12.43;;;;;;;5.84;76.29;96888.79;1765616;81;21145;-86
2020/12/14 02:03:34;;;;;;;18.52;11.48;;;;;;;5.90;76.47;96885.77;1765376;81;21537;-88
2020/12/14 02:06:01;;;;;;;24.63;13.88;;;;;;;5.96;76.50;96888.45;1765187;81;21161;-84
2020/12/14 02:08:29;;;;;;;23.95;13.93;;;;;;;5.98;76.49;96894.44;1765555;81;21575;-89
2020/12/14 02:10:56;;;;;;;23.15;12.73;;;;;;;6.03;76.63;96894.17;1732933;81;21256;-82
2020/12/14 02:13:27;;;;;;;25.48;13.80;;;;;;;6.08;76.63;96902.09;1765069;81;21150;-87
2020/12/14 02:15:55;;;;;;;25.17;13.98;;;;;;;6.12;76.56;96905.34;1764989;81;21157;-89
2020/12/14 02:18:23;;;;;;;25.05;14.05;;;;;;;6.19;76.52;96904.48;1765292;81;21141;-89
2020/12/14 02:20:50;;;;;;;25.55;13.55;;;;;;;6.23;76.51;96909.41;1764510;81;21107;-89
2020/12/14 02:23:18;;;;;;;26.23;13.08;;;;;;;6.29;76.54;96908.63;1763778;81;21118;-83
2020/12/14 02:25:45;;;;;;;25.35;14.00;;;;;;;6.40;76.54;96914.00;1763733;81;21150;-84
2020/12/14 02:28:13;;;;;;;24.32;13.00;;;;;;;6.44;76.26;96914.63;1763597;81;21126;-84
2020/12/14 02:30:40;;;;;;;26.25;14.50;;;;;;;6.43;76.03;96915.56;1763811;81;21138;-84
2020/12/14 02:33:07;;;;;;;30.23;16.40;;;;;;;6.45;76.06;96924.16;1763585;81;21144;-83
2020/12/14 02:35:35;;;;;;;27.95;15.00;;;;;;;6.47;76.11;96927.53;1763615;81;21111;-86
2020/12/14 02:38:02;;;;;;;27.85;15.20;;;;;;;6.47;75.95;96929.66;1763891;81;21543;-85
2020/12/14 02:40:30;;;;;;;30.68;16.82;;;;;;;6.45;75.85;96930.23;1763569;81;21099;-82
2020/12/14 02:42:57;;;;;;;26.30;16.52;;;;;;;6.38;75.74;96927.66;1761993;81;21147;-84
2020/12/14 02:45:24;;;;;;;29.48;16.52;;;;;;;6.37;75.80;96925.52;1763786;81;21138;-81
2020/12/14 02:47:51;;;;;;;27.77;16.17;;;;;;;6.39;75.81;96928.02;1764209;81;21152;-89
2020/12/14 02:50:19;;;;;;;32.55;16.50;;;;;;;6.34;75.66;96923.58;1784909;79;21084;-83
2020/12/14 02:52:47;;;;;;;29.30;14.85;;;;;;;6.30;75.73;96929.94;1794399;79;21138;-80
2020/12/14 02:55:14;;;;;;;31.68;16.80;;;;;;;6.23;75.66;96932.97;1802891;79;21553;-84
2020/12/14 02:57:42;;;;;;;31.10;16.48;;;;;;;6.19;75.76;96940.64;1756397;79;21608;-80
2020/12/14 03:00:09;;;;;;;30.52;15.93;;;;;;;6.15;75.78;96938.32;1819231;79;21147;-88
2020/12/14 03:02:38;;;;;;;29.55;17.12;;;;;;;6.08;75.92;96942.66;1779801;80;21112;-88
2020/12/14 03:05:05;;;;;;;27.40;15.80;;;;;;;6.07;75.93;96948.00;1787115;80;21122;-83
2020/12/14 03:07:33;;;;;;;29.92;16.25;;;;;;;6.05;76.00;96949.87;1781822;79;21147;-88
2020/12/14 03:10:00;;;;;;;30.57;17.00;;;;;;;6.03;76.00;96948.63;1816997;79;21585;-83
2020/12/14 03:12:27;;;;;;;29.87;15.95;;;;;;;5.98;76.03;96944.63;1803667;79;21123;-88
2020/12/14 03:14:54;;;;;;;30.60;16.67;;;;;;;5.94;76.00;96944.81;1819072;79;21148;-87
2020/12/14 03:17:22;;;;;;;27.25;15.85;;;;;;;5.89;76.05;96948.17;1819764;79;21120;-83
2020/12/14 03:19:50;;;;;;;25.68;14.55;;;;;;;5.86;76.11;96951.46;1808975;78;21259;-84
2020/12/14 03:22:17;;;;;;;27.05;14.75;;;;;;;5.73;75.92;96947.03;1780230;79;21142;-83
2020/12/14 03:24:44;;;;;;;28.95;15.38;;;;;;;5.69;76.22;96949.45;1774041;80;21520;-85
2020/12/14 03:27:12;;;;;;;24.45;14.47;;;;;;;5.69;76.39;96950.76;1811271;79;21143;-82
2020/12/14 03:29:40;;;;;;;27.15;15.63;;;;;;;5.58;76.26;96947.97;1805285;78;21131;-85
2020/12/14 03:32:07;;;;;;;29.40;16.75;;;;;;;5.55;76.60;96944.26;1797815;79;21169;-82
2020/12/14 03:34:34;;;;;;;24.85;15.25;;;;;;;5.55;77.03;96956.02;1785920;79;21573;-81
2020/12/14 03:37:02;;;;;;;24.12;14.58;;;;;;;5.57;76.96;96959.36;1802661;79;21100;-85
2020/12/14 03:39:29;;;;;;;25.52;15.70;;;;;;;5.61;77.02;96955.63;1791494;79;21553;-80
2020/12/14 03:41:56;;;;;;;26.07;14.38;;;;;;;5.66;77.09;96954.03;1801364;79;21151;-85
2020/12/14 03:44:23;;;;;;;23.95;14.75;;;;;;;5.72;77.13;96948.41;1802359;79;21111;-84
2020/12/14 03:46:51;;;;;;;26.20;15.00;;;;;;;5.79;77.17;96953.65;1799283;79;21100;-85
2020/12/14 03:49:19;;;;;;;25.62;15.00;;;;;;;5.86;77.11;96953.63;1815648;78;21102;-82
2020/12/14 03:51:46;;;;;;;25.35;14.60;;;;;;;5.96;77.08;96951.73;1777246;79;21253;-80
2020/12/14 03:54:14;;;;;;;29.23;15.30;;;;;;;6.03;76.94;96955.66;1770558;79;21152;-87
2020/12/14 03:56:41;;;;;;;23.70;14.73;;;;;;;6.12;76.87;96964.23;1802792;79;21138;-88
2020/12/14 03:59:09;;;;;;;25.10;14.28;;;;;;;6.15;76.63;96962.73;1799617;78;21076;-88
2020/12/14 04:01:36;;;;;;;24.92;15.53;;;;;;;6.20;76.51;96963.27;1798565;79;21359;-84
2020/12/14 04:04:03;;;;;;;28.80;16.42;;;;;;;6.27;76.46;96963.70;1814011;79;21274;-89
2020/12/14 04:06:31;;;;;;;31.65;19.12;;;;;;;6.32;76.30;96962.09;1802712;78;21138;-89
2020/12/14 04:08:58;;;;;;;28.10;16.65;;;;;;;6.30;75.99;96963.52;1764521;81;21578;-84
2020/12/14 04:11:25;;;;;;;29.55;17.55;;;;;;;6.29;75.90;96968.37;1818688;79;21580;-89
2020/12/14 04:13:53;;;;;;;30.60;17.37;;;;;;;6.27;75.79;96969.39;1800639;78;21539;-89
2020/12/14 04:16:20;;;;;;;28.77;16.73;;;;;;;6.17;75.62;96973.09;1792397;79;21127;-88
2020/12/14 04:18:49;;;;;;;30.80;17.57;;;;;;;6.09;75.74;96976.19;1764158;81;21564;-84
2020/12/14 04:21:18;;;;;;;31.50;16.82;;;;;;;6.03;75.78;96973.49;1802814;79;21140;-87
2020/12/14 04:23:46;;;;;;;26.55;16.10;;;;;;;6.02;75.80;96981.45;1793037;80;21129;-85
2020/12/14 04:26:14;;;;;;;27.00;16.52;;;;;;;5.97;75.82;96979.58;1790906;79;21111;-85
2020/12/14 04:28:42;;;;;;;28.75;15.48;;;;;;;5.93;75.82;96980.25;1811216;79;21157;-84
2020/12/14 04:31:09;;;;;;;28.02;16.10;;;;;;;5.89;75.83;96978.27;1791152;79;21208;-81
2020/12/14 04:33:38;;;;;;;29.55;16.52;;;;;;;5.87;75.84;96980.16;1792683;80;21165;-87
2020/12/14 04:36:06;;;;;;;30.95;15.98;;;;;;;5.84;75.91;96984.27;1801667;78;21099;-86
2020/12/14 04:38:34;;;;;;;27.48;16.42;;;;;;;5.81;75.98;96985.76;1764985;79;21544;-83
2020/12/14 04:41:04;;;;;;;27.60;16.00;;;;;;;5.77;75.92;96986.91;1822391;79;21631;-84
2020/12/14 04:43:32;;;;;;;28.50;17.40;;;;;;;5.73;76.01;96989.33;1778317;79;21290;-89
2020/12/14 04:46:06;;;;;;;27.73;16.00;;;;;;;5.69;76.05;96989.98;1774960;80;21115;-84
2020/12/14 04:48:34;;;;;;;27.98;16.97;;;;;;;5.65;76.11;96996.36;1791514;79;21511;-85
2020/12/14 04:51:01;;;;;;;26.25;15.35;;;;;;;5.57;76.17;96995.52;1806785;78;21150;-87
2020/12/14 04:53:30;;;;;;;26.50;15.83;;;;;;;5.54;76.28;96991.77;1812262;78;21131;-86
2020/12/14 04:56:02;;;;;;;24.55;13.75;;;;;;;5.52;76.30;96991.02;1773684;78;21146;-84
2020/12/14 04:58:30;;;;;;;25.68;14.75;;;;;;;5.51;76.32;97000.27;1829143;78;21273;-86
2020/12/14 05:00:57;;;;;;;24.47;14.45;;;;;;;5.49;76.35;97004.30;1829597;78;21124;-82
2020/12/14 05:03:25;;;;;;;25.12;14.30;;;;;;;5.50;76.50;97004.67;1818722;78;21100;-87
2020/12/14 05:05:56;;;;;;;23.73;13.25;;;;;;;5.54;76.62;97006.64;1827605;78;21116;-87
2020/12/14 05:08:25;;;;;;;22.55;13.05;;;;;;;5.58;76.71;97010.27;1828161;78;21351;-86
2020/12/14 05:10:54;;;;;;;24.98;13.40;;;;;;;5.62;76.74;97013.05;1824510;78;21589;-84
2020/12/14 05:13:28;;;;;;;23.60;13.30;;;;;;;5.68;76.77;97016.24;1806874;78;21281;-84
2020/12/14 05:15:56;;;;;;;23.07;13.28;;;;;;;5.76;76.80;97017.44;1812810;78;21094;-84
2020/12/14 05:18:23;;;;;;;22.22;12.47;;;;;;;5.86;76.94;97020.33;1803507;78;21554;-80
2020/12/14 05:21:04;;;;;;;20.92;11.60;;;;;;;5.93;76.85;97009.02;1786588;78;21124;-81
2020/12/14 05:23:34;;;;;;;21.45;12.30;;;;;;;6.02;76.74;97016.78;1796244;78;21102;-84
2020/12/14 05:26:13;;;;;;;18.55;11.70;;;;;;;6.06;76.49;97015.66;1806977;78;21651;-85
2020/12/14 05:28:41;;;;;;;18.15;11.38;;;;;;;6.09;76.38;97018.92;1777937;78;21139;-88
2020/12/14 05:31:19;;;;;;;18.17;11.28;;;;;;;6.11;76.22;97021.91;1824485;78;21123;-87
2020/12/14 05:33:47;;;;;;;18.75;10.68;;;;;;;6.10;76.25;97024.98;1776025;78;21650;-88
2020/12/14 05:36:17;;;;;;;17.00;11.10;;;;;;;6.11;76.19;97026.66;1785031;78;21141;-79
2020/12/14 05:38:45;;;;;;;20.85;11.78;;;;;;;6.12;76.19;97032.27;1784982;78;21516;-89
2020/12/14 05:41:14;;;;;;;19.20;12.18;;;;;;;6.15;76.29;97032.09;1825187;78;21577;-89
2020/12/14 05:43:47;;;;;;;18.62;11.60;;;;;;;6.18;76.07;97044.13;1790523;80;21115;-90
2020/12/14 05:46:16;;;;;;;21.60;12.80;;;;;;;6.18;75.97;97039.72;1792436;80;21153;-87
2020/12/14 05:48:45;;;;;;;19.42;12.25;;;;;;;6.15;75.83;97047.80;1796899;78;21112;-90
2020/12/14 05:51:13;;;;;;;21.20;13.68;;;;;;;6.16;75.74;97048.62;1804603;79;21123;-86
2020/12/14 05:53:50;;;;;;;24.52;12.30;;;;;;;6.11;75.74;97056.76;1800161;79;21637;-89
2020/12/14 05:56:18;;;;;;;26.93;13.03;;;;;;;6.08;75.72;97061.73;1774264;81;21142;-86
2020/12/14 06:01:32;;;;;;;21.10;12.80;;;;;;;6.06;75.62;97064.07;1763303;79;24953;-81
2020/12/14 06:04:02;;;;;;;19.87;12.58;;;;;;;5.96;75.56;97076.02;1735991;82;21645;-85
2020/12/14 06:06:32;;;;;;;23.50;13.85;;;;;;;5.87;75.61;97085.25;1746724;82;21156;-89
2020/12/14 06:09:06;;;;;;;24.70;13.88;;;;;;;5.83;75.79;97089.02;1754314;81;21208;-89
2020/12/14 06:11:36;;;;;;;19.75;11.25;;;;;;;5.80;75.73;97092.62;1740318;82;21280;-84
2020/12/14 06:14:08;;;;;;;17.70;11.20;;;;;;;5.77;75.77;97100.20;1739640;82;21135;-89
2020/12/14 06:16:36;;;;;;;19.52;11.48;;;;;;;5.74;75.75;97095.63;1749253;82;21120;-83
2020/12/14 06:19:04;;;;;;;20.20;11.60;;;;;;;5.71;75.70;97099.28;1724652;82;21180;-78
2020/12/14 06:21:49;;;;;;;21.15;11.35;;;;;;;5.68;75.80;97099.94;1744368;82;21203;-78
2020/12/14 06:24:20;;;;;;;16.65;11.00;;;;;;;5.66;75.87;97109.16;1710665;82;21179;-85
2020/12/14 06:26:49;;;;;;;18.55;11.68;;;;;;;5.63;75.91;97110.19;1727696;82;21238;-83
2020/12/14 06:29:41;;;;;;;17.98;11.43;;;;;;;5.60;75.82;97113.45;1728096;82;21167;-81
2020/12/14 06:32:40;;;;;;;18.20;10.08;;;;;;;5.58;75.94;97114.02;1753600;82;21145;-77
2020/12/14 06:35:16;;;;;;;15.23;10.08;;;;;;;5.59;76.12;97113.08;1728033;81;21149;-83
2020/12/14 06:37:54;;;;;;;18.73;11.20;;;;;;;5.61;76.18;97113.84;1721458;83;21140;-78
2020/12/14 06:40:24;;;;;;;18.48;9.95;;;;;;;5.65;76.21;97122.34;1723019;82;21162;-83
2020/12/14 06:42:52;;;;;;;15.28;9.55;;;;;;;5.71;76.44;97118.03;1723894;83;21136;-86
2020/12/14 06:45:21;;;;;;;16.05;10.00;;;;;;;5.79;76.34;97119.75;1723781;83;21164;-81
2020/12/14 06:47:52;;;;;;;12.35;8.73;;;;;;;5.86;76.44;97122.81;1725796;82;21183;-81
2020/12/14 06:50:32;;;;;;;14.87;9.40;;;;;;;5.92;76.28;97123.77;1725353;82;21133;-80
2020/12/14 06:53:01;;;;;;;15.83;10.07;;;;;;;5.98;76.11;97130.41;1709337;82;21163;-79
2020/12/14 06:55:43;;;;;;;15.50;9.33;;;;;;;5.99;76.02;97132.95;1753424;82;21132;-80
2020/12/14 06:58:33;;;;;;;14.30;9.43;;;;;;;6.05;75.98;97136.97;1753771;82;21538;-82
2020/12/14 07:01:03;;;;;;;15.10;9.18;;;;;;;6.12;75.86;97139.58;1722009;82;21264;-82
2020/12/14 07:03:36;;;;;;;14.68;9.78;;;;;;;6.16;75.61;97146.77;1729273;82;21093;-82
2020/12/14 07:06:05;;;;;;;15.23;9.05;;;;;;;6.24;75.60;97140.58;1724165;82;21157;-85
2020/12/14 07:08:38;;;;;;;17.98;10.88;;;;;;;6.27;75.30;97141.71;1675404;85;21173;-80
2020/12/14 07:11:14;;;;;;;16.07;10.95;;;;;;;6.27;75.32;97152.63;1740095;82;21199;-82
2020/12/14 07:13:44;;;;;;;15.75;10.53;;;;;;;6.30;75.24;97156.38;1717126;82;21160;-88
2020/12/14 07:16:15;;;;;;;16.48;10.85;;;;;;;6.26;75.10;97155.73;1724110;82;21144;-79
2020/12/14 07:18:46;;;;;;;15.85;10.35;;;;;;;6.25;75.08;97153.59;1736845;82;21290;-72
2020/12/14 07:21:17;;;;;;;19.98;12.07;;;;;;;6.25;75.00;97168.00;1711077;82;21198;-79
2020/12/14 07:23:47;;;;;;;18.92;11.25;;;;;;;6.24;74.87;97167.63;1716736;82;21152;-74
2020/12/14 07:26:16;;;;;;;18.35;11.60;;;;;;;6.21;74.74;97171.72;1737552;82;21275;-76
2020/12/14 07:28:51;;;;;;;19.42;12.23;;;;;;;6.05;74.38;97165.27;1739755;82;21145;-80
2020/12/14 07:31:21;;;;;;;21.50;13.25;;;;;;;6.05;74.38;97165.27;1724021;82;21574;-81
2020/12/14 07:33:58;;;;;;;22.00;12.93;;;;;;;5.99;74.60;97166.07;1730482;82;21302;-81
2020/12/14 07:36:28;;;;;;;20.60;13.60;;;;;;;5.94;74.67;97180.30;1727858;82;21160;-83
2020/12/14 07:38:58;;;;;;;21.80;11.97;;;;;;;5.90;74.84;97179.26;1674160;85;21183;-85
2020/12/14 07:41:27;;;;;;;19.73;12.25;;;;;;;5.88;74.89;97179.36;1710336;83;21137;-83
2020/12/14 07:43:57;;;;;;;21.75;13.88;;;;;;;5.84;74.83;97182.25;1710437;82;21102;-84
2020/12/14 07:46:35;;;;;;;20.37;12.95;;;;;;;5.81;74.98;97187.17;1712269;82;21148;-86
2020/12/14 07:49:09;;;;;;;19.80;12.35;;;;;;;5.81;75.06;97190.27;1711370;82;21137;-86
2020/12/14 07:51:44;;;;;;;17.17;11.18;;;;;;;5.76;75.21;97200.53;1715938;82;21148;-77
2020/12/14 07:54:16;;;;;;;20.23;11.18;;;;;;;5.79;75.30;97200.36;1720754;82;21113;-85
2020/12/14 07:56:56;;;;;;;17.57;10.68;;;;;;;5.76;75.41;97201.84;1727409;82;21279;-91
2020/12/14 07:59:29;;;;;;;17.25;9.90;;;;;;;5.72;75.91;97199.05;1727885;82;21176;-88
2020/12/14 08:01:58;;;;;;;20.17;11.55;;;;;;;5.70;76.06;97207.92;1719612;82;21168;-91
2020/12/14 08:04:34;;;;;;;16.85;10.30;;;;;;;5.70;75.82;97207.92;1723146;82;21149;-82
2020/12/14 08:07:02;;;;;;;20.60;11.15;;;;;;;5.79;76.06;97210.00;1727446;82;21144;-85
2020/12/14 08:09:34;;;;;;;17.82;10.30;;;;;;;5.88;75.98;97209.45;1725738;82;21255;-87
2020/12/14 08:12:03;;;;;;;21.57;9.95;;;;;;;5.94;75.83;97218.68;1716294;82;21116;-90
2020/12/14 08:14:32;;;;;;;17.75;9.85;;;;;;;5.93;75.79;97228.31;1728835;82;21141;-80
2020/12/14 08:17:00;;;;;;;16.60;10.00;;;;;;;6.00;75.96;97231.45;1736274;82;21133;-89
2020/12/14 08:19:33;;;;;;;15.93;9.43;;;;;;;6.06;75.78;97232.38;1729475;82;21156;-84
2020/12/14 08:22:10;;;;;;;17.42;10.18;;;;;;;6.10;75.79;97233.04;1715727;82;21156;-87
2020/12/14 08:24:41;;;;;;;19.70;10.63;;;;;;;6.18;75.88;97234.72;1715448;82;21600;-86
2020/12/14 08:27:13;;;;;;;16.48;10.65;;;;;;;6.33;75.86;97240.81;1725952;82;21144;-82
2020/12/14 08:30:01;;;;;;;17.48;9.23;;;;;;;6.40;75.42;97233.43;1711597;82;21169;-85
2020/12/14 08:32:28;;;;;;;19.70;11.18;;;;;;;6.39;75.11;97236.98;1707379;82;21171;-87
2020/12/14 08:34:56;;;;;;;18.30;11.15;;;;;;;6.46;75.12;97240.90;1711662;82;21577;-84
2020/12/14 08:37:23;;;;;;;16.55;9.83;;;;;;;6.55;75.07;97241.64;1716544;82;21152;-84
2020/12/14 08:40:01;;;;;;;19.98;10.28;;;;;;;6.58;74.70;97241.09;1718150;82;21199;-87
2020/12/14 08:42:32;;;;;;;19.23;11.15;;;;;;;6.61;74.64;97242.22;1721657;82;21149;-85
2020/12/14 08:45:10;;;;;;;17.25;10.93;;;;;;;6.64;74.49;97247.25;1726493;82;21098;-81
2020/12/14 08:47:39;;;;;;;17.75;10.88;;;;;;;6.63;74.29;97256.89;1738082;82;21294;-86
2020/12/14 08:50:10;;;;;;;18.00;10.93;;;;;;;6.63;74.23;97252.14;1724270;82;21117;-83
2020/12/14 08:52:39;;;;;;;12.78;8.83;;;;;;;6.64;74.14;97251.17;1717062;82;21133;-81
2020/12/14 08:55:06;;;;;;;17.32;9.83;;;;;;;6.65;73.83;97255.48;1723471;82;21117;-85
2020/12/14 08:57:34;;;;;;;15.00;10.50;;;;;;;6.66;73.64;97251.48;1725812;82;21175;-87
2020/12/14 09:00:11;;;;;;;16.95;11.08;;;;;;;6.69;73.64;97255.67;1712859;82;21172;-87
2020/12/14 09:02:39;;;;;;;19.87;12.65;;;;;;;6.70;73.74;97254.74;1712140;82;21156;-82
2020/12/14 09:05:18;;;;;;;17.32;10.80;;;;;;;6.68;73.61;97252.20;1718057;82;21156;-89
2020/12/14 09:07:47;;;;;;;15.88;9.90;;;;;;;6.62;73.59;97247.35;1718267;82;21128;-90
2020/12/14 09:10:28;;;;;;;19.92;9.43;;;;;;;6.62;73.59;97247.35;1721766;82;21109;-89
2020/12/14 09:13:05;;;;;;;15.23;9.25;;;;;;;6.64;73.24;97253.80;1717658;82;21152;-90
2020/12/14 09:15:40;;;;;;;15.05;8.95;;;;;;;6.64;73.28;97248.55;1723513;82;21137;-86
2020/12/14 09:18:08;;;;;;;14.30;9.65;;;;;;;6.61;73.28;97252.21;1710528;82;21140;-85
2020/12/14 09:20:36;;;;;;;15.75;9.43;;;;;;;6.62;73.29;97251.77;1711402;82;21565;-90
2020/12/14 09:23:03;;;;;;;17.82;10.72;;;;;;;6.65;73.36;97257.65;1715659;82;21153;-86
2020/12/14 09:25:30;;;;;;;18.65;9.90;;;;;;;6.69;73.46;97259.13;1711497;82;21638;-89
2020/12/14 09:28:00;;;;;;;17.25;10.32;;;;;;;6.70;73.41;97257.36;1712671;82;21140;-91
2020/12/14 09:30:27;;;;;;;16.17;10.03;;;;;;;6.74;73.40;97252.29;1711731;82;21173;-86
2020/12/14 09:32:58;;;;;;;18.92;9.38;;;;;;;6.79;73.20;97252.86;1713462;82;21152;-87
2020/12/14 09:35:25;;;;;;;14.35;8.95;;;;;;;6.85;73.30;97248.53;1651124;84;21141;-92
2020/12/14 09:37:53;;;;;;;14.83;9.53;;;;;;;6.98;73.25;97247.29;1720930;82;21189;-90
2020/12/14 09:40:20;;;;;;;11.85;7.85;;;;;;;7.03;72.92;97226.89;1724141;82;21698;-86
2020/12/14 09:42:48;;;;;;;15.08;9.18;;;;;;;7.19;72.85;97245.55;1727309;82;21144;-87
2020/12/14 09:45:17;;;;;;;17.40;8.78;;;;;;;7.27;72.32;97242.45;1716755;82;21164;-85
2020/12/14 09:47:48;;;;;;;17.25;10.28;;;;;;;7.39;72.33;97235.56;1728866;82;21286;-91
2020/12/14 09:50:16;;;;;;;15.30;8.48;;;;;;;7.64;72.13;97237.42;1729298;82;21141;-86
2020/12/14 09:52:44;;;;;;;14.30;9.70;;;;;;;7.64;72.13;97237.42;1738244;82;21305;-92
2020/12/14 09:55:12;;;;;;;15.40;10.25;;;;;;;7.76;71.89;97237.08;1727041;82;21144;-84
2020/12/14 09:57:40;;;;;;;12.65;9.53;;;;;;;7.86;71.10;97241.22;1726465;82;21145;-86
2020/12/14 10:00:07;;;;;;;13.30;8.43;;;;;;;7.86;71.10;97241.22;1711097;83;21156;-96
2020/12/14 10:02:35;;;;;;;14.60;8.55;;;;;;;7.87;68.55;97240.28;1729773;82;21133;-93
2020/12/14 10:05:04;;;;;;;13.75;9.13;;;;;;;7.87;68.55;97240.28;1720533;82;21262;-92
2020/12/14 10:07:31;;;;;;;10.80;7.80;;;;;;;7.68;70.24;97232.81;1719521;83;21259;-95
2020/12/14 10:09:59;;;;;;;12.88;9.23;;;;;;;7.65;69.67;97245.19;1732786;82;21334;-95
2020/12/14 10:12:28;;;;;;;15.20;9.18;;;;;;;7.44;69.49;97230.39;1734406;82;21723;-90
2020/12/14 10:14:56;;;;;;;13.75;9.05;;;;;;;7.36;69.74;97226.13;1718824;83;21370;-93
2020/12/14 10:17:24;;;;;;;15.28;9.58;;;;;;;7.36;69.74;97226.13;1718935;83;21164;-96
2020/12/14 10:19:51;;;;;;;14.80;9.88;;;;;;;7.33;70.13;97233.70;1721101;82;21518;-90
2020/12/14 10:22:19;;;;;;;13.95;9.80;;;;;;;7.29;70.15;97240.55;1720890;82;21164;-94
2020/12/14 10:24:48;;;;;;;15.18;10.55;;;;;;;7.28;70.09;97241.52;1722999;81;21748;-87
2020/12/14 10:27:19;;;;;;;18.30;10.28;;;;;;;7.19;70.14;97243.77;1697937;82;21140;-90
2020/12/14 10:29:46;;;;;;;16.00;10.30;;;;;;;7.09;70.45;97233.98;1739714;81;21806;-78
2020/12/14 10:32:14;;;;;;;14.23;9.58;;;;;;;7.14;70.42;97245.02;1736800;82;21748;-95
2020/12/14 10:34:42;;;;;;;15.80;10.23;;;;;;;7.14;70.42;97245.02;1741972;82;21286;-93
2020/12/14 10:37:12;;;;;;;17.37;9.83;;;;;;;7.17;70.74;97243.50;1737697;82;21147;-90
2020/12/14 10:39:43;;;;;;;13.08;8.90;;;;;;;7.17;70.74;97243.50;1733781;82;21353;-94
2020/12/14 10:42:12;;;;;;;16.42;10.03;;;;;;;7.20;70.86;97243.31;1732526;82;21203;-89
2020/12/14 10:44:39;;;;;;;15.60;10.48;;;;;;;7.19;70.73;97242.45;1727257;81;21168;-90
2020/12/14 10:47:08;;;;;;;15.28;10.72;;;;;;;7.23;70.88;97246.20;1729413;82;21168;-92
2020/12/14 10:49:36;;;;;;;13.85;9.13;;;;;;;7.23;70.74;97244.44;1727504;81;21251;-87
2020/12/14 10:52:04;;;;;;;15.83;10.00;;;;;;;7.19;70.58;97237.20;1743322;82;21128;-92
2020/12/14 10:54:31;;;;;;;19.25;10.60;;;;;;;7.14;70.75;97230.12;1720918;82;21168;-93
2020/12/14 10:56:58;;;;;;;16.60;11.40;;;;;;;7.24;70.77;97244.78;1718431;82;21179;-90
2020/12/14 10:59:26;;;;;;;15.72;10.25;;;;;;;7.24;70.74;97235.60;1720734;82;21208;-88
2020/12/14 11:01:54;;;;;;;19.50;12.05;;;;;;;7.25;70.29;97231.22;1720120;83;21330;-89
2020/12/14 11:04:23;;;;;;;15.68;9.85;;;;;;;7.29;70.41;97241.86;1726734;82;21333;-92
2020/12/14 11:06:50;;;;;;;13.35;8.45;;;;;;;7.25;70.46;97239.91;1746574;82;21112;-90
2020/12/14 11:09:18;;;;;;;14.90;9.80;;;;;;;7.28;70.50;97244.97;1744318;82;21294;-93
2020/12/14 11:11:45;;;;;;;13.30;8.60;;;;;;;7.32;70.53;97249.08;1735437;82;21136;-92
2020/12/14 11:14:14;;;;;;;10.50;6.58;;;;;;;7.35;70.83;97234.93;1729503;82;21956;-95
2020/12/14 11:16:47;;;;;;;15.58;9.58;;;;;;;7.24;69.54;97249.20;1730129;82;21136;-89
2020/12/14 11:19:16;;;;;;;13.88;7.42;;;;;;;7.18;70.87;97249.12;1751715;81;21306;-87
2020/12/14 11:21:43;;;;;;;14.95;6.92;;;;;;;7.26;71.29;97247.32;1728239;82;21124;-92
2020/12/14 11:24:11;;;;;;;10.10;6.75;;;;;;;7.29;69.50;97245.80;1736434;82;21769;-87
2020/12/14 11:26:41;;;;;;;13.55;10.10;;;;;;;7.35;70.96;97244.11;1739570;82;21180;-95
2020/12/14 11:29:09;;;;;;;19.48;12.25;;;;;;;7.56;70.72;97245.79;1724973;82;21148;-92
2020/12/14 11:31:36;;;;;;;17.95;10.25;;;;;;;7.56;70.72;97245.79;1725406;82;21160;-91
2020/12/14 11:34:06;;;;;;;13.90;7.97;;;;;;;7.64;70.84;97251.85;1744799;82;21144;-91
2020/12/14 11:36:33;;;;;;;10.03;6.65;;;;;;;7.73;70.71;97255.63;1672210;85;21175;-88
2020/12/14 11:39:01;;;;;;;14.68;7.67;;;;;;;7.75;69.34;97250.65;1738084;82;21152;-91